Time;durP1;ratioP1;P1;durP2;ratioP2;P2;SDS_P1;SDS_P2;PMS_P1;PMS_P2;Temp;Humidity;BMP_temperature;BMP_pressure;BME280_temperature;BME280_humidity;BME280_pressure;Samples;Min_cycle;Max_cycle;Signal;HPM_P1;HPM_P2
2021/01/14 00:00:01;;;;;;;0.40;0.40;;;-4.60;99.90;;;;;;5044232;28;20170;-77
2021/01/14 00:02:27;;;;;;;0.20;0.20;;;-4.40;99.90;;;;;;5028261;28;20158;-77
2021/01/14 00:04:53;;;;;;;0.30;0.30;;;-4.30;99.90;;;;;;5043037;28;20192;-77
2021/01/14 00:07:20;;;;;;;0.17;0.17;;;-4.20;99.90;;;;;;5028801;28;20193;-77
2021/01/14 00:09:47;;;;;;;0.50;0.50;;;-4.20;99.90;;;;;;5028888;28;20163;-77
2021/01/14 00:12:14;;;;;;;0.43;0.43;;;-4.20;99.90;;;;;;5028723;28;20197;-78
2021/01/14 00:14:41;;;;;;;0.20;0.20;;;-4.20;99.90;;;;;;5043950;28;20171;-78
2021/01/14 00:17:06;;;;;;;0.10;0.10;;;-4.20;99.90;;;;;;5028696;28;20235;-77
2021/01/14 00:19:32;;;;;;;0.77;0.77;;;-4.20;99.90;;;;;;5040543;28;20246;-77
2021/01/14 00:21:58;;;;;;;0.20;0.20;;;-4.20;99.90;;;;;;5028662;28;20186;-77
2021/01/14 00:24:24;;;;;;;1.95;1.85;;;-4.20;99.90;;;;;;5028541;28;20193;-77
2021/01/14 00:26:50;;;;;;;0.30;0.30;;;-4.10;99.90;;;;;;5028578;28;20160;-78
2021/01/14 00:29:16;;;;;;;0.25;0.25;;;-4.10;99.90;;;;;;5043605;28;20166;-77
2021/01/14 00:31:42;;;;;;;0.20;0.20;;;-4.00;99.90;;;;;;5028766;28;20154;-77
2021/01/14 00:34:08;;;;;;;0.20;0.20;;;-4.00;99.90;;;;;;5043462;28;20212;-78
2021/01/14 00:39:27;;;;;;;0.20;0.20;;;-3.90;99.90;;;;;;5028525;28;20200;-77
2021/01/14 00:41:54;;;;;;;0.60;0.60;;;-3.90;99.90;;;;;;5026815;28;20222;-77
2021/01/14 00:44:20;;;;;;;0.20;0.20;;;-3.90;99.90;;;;;;5028420;28;20169;-77
2021/01/14 00:46:46;;;;;;;0.28;0.28;;;-3.90;99.90;;;;;;5028556;28;20155;-78
2021/01/14 00:49:13;;;;;;;0.25;0.25;;;-3.90;99.90;;;;;;5043845;28;20181;-77
2021/01/14 00:51:40;;;;;;;0.20;0.20;;;-3.80;99.90;;;;;;5043674;28;20166;-77
2021/01/14 00:54:07;;;;;;;0.10;0.10;;;-3.80;99.90;;;;;;5043422;28;20185;-78
2021/01/14 00:56:37;;;;;;;0.20;0.20;;;-3.80;99.90;;;;;;5026971;28;20202;-77
2021/01/14 00:59:04;;;;;;;0.20;0.20;;;-3.80;99.90;;;;;;5028343;28;20576;-76
2021/01/14 01:01:32;;;;;;;0.10;0.10;;;-3.70;99.90;;;;;;5043521;28;20603;-77
2021/01/14 01:03:59;;;;;;;0.20;0.20;;;-3.60;99.90;;;;;;5028489;28;20177;-77
2021/01/14 01:06:32;;;;;;;0.22;0.22;;;-3.60;99.90;;;;;;5026985;28;20163;-78
2021/01/14 01:08:58;;;;;;;0.20;0.20;;;-3.50;99.90;;;;;;5043304;28;20579;-78
2021/01/14 01:11:25;;;;;;;0.60;0.60;;;-3.40;99.90;;;;;;5043526;28;20170;-78
2021/01/14 01:13:52;;;;;;;0.20;0.20;;;-3.40;99.90;;;;;;5028142;28;20178;-78
2021/01/14 01:16:18;;;;;;;0.68;0.68;;;-3.40;99.90;;;;;;5026821;28;20166;-77
2021/01/14 01:18:45;;;;;;;0.20;0.20;;;-3.30;99.90;;;;;;5028265;28;20194;-78
2021/01/14 01:21:11;;;;;;;0.10;0.10;;;-3.30;99.90;;;;;;5028104;28;20158;-77
2021/01/14 01:23:38;;;;;;;0.28;0.28;;;-3.30;99.90;;;;;;5043360;28;20181;-78
2021/01/14 01:26:04;;;;;;;0.10;0.10;;;-3.20;99.90;;;;;;5043523;28;20615;-77
2021/01/14 01:28:31;;;;;;;0.20;0.20;;;-3.20;99.90;;;;;;5029334;28;20198;-77
2021/01/14 01:30:57;;;;;;;0.43;0.43;;;-3.10;99.90;;;;;;5029624;28;20615;-77
2021/01/14 01:33:29;;;;;;;0.20;0.20;;;-3.20;99.90;;;;;;5030778;28;20201;-77
2021/01/14 01:35:55;;;;;;;0.20;0.20;;;-3.20;99.90;;;;;;5031373;28;20217;-77
2021/01/14 01:38:22;;;;;;;0.20;0.20;;;-3.20;99.90;;;;;;5044935;28;20259;-77
2021/01/14 01:40:58;;;;;;;0.10;0.10;;;-3.20;99.90;;;;;;5028232;28;20162;-77
2021/01/14 01:43:25;;;;;;;0.20;0.20;;;-3.20;99.90;;;;;;5043894;28;20518;-77
2021/01/14 01:45:53;;;;;;;0.20;0.20;;;-3.10;99.90;;;;;;5029797;28;20182;-77
2021/01/14 01:48:20;;;;;;;0.20;0.20;;;-3.10;99.90;;;;;;5032818;28;20257;-77
2021/01/14 01:50:47;;;;;;;0.20;0.20;;;-3.10;99.90;;;;;;5047748;28;20166;-77
2021/01/14 01:53:13;;;;;;;0.20;0.20;;;-3.00;99.90;;;;;;5047726;28;20204;-77
2021/01/14 01:55:42;;;;;;;0.20;0.20;;;-3.10;99.90;;;;;;5032570;28;20150;-77
2021/01/14 01:58:10;;;;;;;0.20;0.20;;;-3.00;99.90;;;;;;5047264;28;20200;-77
2021/01/14 02:00:36;;;;;;;0.20;0.20;;;-2.90;99.90;;;;;;5031994;28;20171;-77
2021/01/14 02:03:02;;;;;;;0.20;0.20;;;-2.90;99.90;;;;;;5031915;28;20269;-77
2021/01/14 02:05:28;;;;;;;0.22;0.22;;;-2.90;99.90;;;;;;5031616;28;20169;-77
2021/01/14 02:08:22;;;;;;;0.47;0.47;;;-3.00;99.90;;;;;;5032075;28;20201;-77
2021/01/14 02:10:55;;;;;;;0.20;0.20;;;-3.00;99.90;;;;;;5031287;28;20166;-78
2021/01/14 02:13:40;;;;;;;0.10;0.10;;;-3.10;99.90;;;;;;5046269;28;20198;-78
2021/01/14 02:16:07;;;;;;;0.40;0.40;;;-3.00;99.90;;;;;;5031038;28;20170;-77
2021/01/14 02:18:33;;;;;;;0.20;0.20;;;-3.00;99.90;;;;;;5046211;28;20201;-77
2021/01/14 02:21:06;;;;;;;0.20;0.20;;;-2.90;99.90;;;;;;5046348;28;20311;-78
2021/01/14 02:23:37;;;;;;;0.17;0.17;;;-2.90;99.90;;;;;;5030973;28;20181;-78
2021/01/14 02:26:17;;;;;;;0.10;0.10;;;-2.90;99.90;;;;;;5030986;28;20196;-77
2021/01/14 02:28:45;;;;;;;0.82;0.82;;;-2.90;99.90;;;;;;5030776;28;20197;-78
2021/01/14 02:31:19;;;;;;;0.73;0.52;;;-2.90;99.90;;;;;;5031024;28;20254;-78
2021/01/14 02:33:48;;;;;;;0.08;0.08;;;-3.00;99.90;;;;;;5030680;28;20186;-77
2021/01/14 02:36:14;;;;;;;0.28;0.28;;;-3.10;99.90;;;;;;5045922;28;20169;-78
2021/01/14 02:38:40;;;;;;;0.20;0.20;;;-3.10;99.90;;;;;;5046012;28;20198;-77
2021/01/14 02:41:06;;;;;;;0.20;0.20;;;-3.10;99.90;;;;;;5028847;28;20248;-77
2021/01/14 02:43:32;;;;;;;3.72;1.30;;;-3.10;99.90;;;;;;5030766;28;20166;-78
2021/01/14 02:45:59;;;;;;;1.23;1.02;;;-2.90;99.90;;;;;;5030496;28;20173;-78
2021/01/14 02:49:02;;;;;;;0.10;0.10;;;-2.90;99.90;;;;;;5028920;28;20197;-78
2021/01/14 02:51:42;;;;;;;0.30;0.30;;;-2.90;99.90;;;;;;5029772;28;20190;-78
2021/01/14 02:54:12;;;;;;;0.20;0.20;;;-2.90;99.90;;;;;;5030228;28;20190;-78
2021/01/14 02:56:39;;;;;;;3.42;2.08;;;-2.90;99.90;;;;;;5029730;28;20169;-78
2021/01/14 02:59:06;;;;;;;0.10;0.10;;;-2.90;99.90;;;;;;5028621;28;20198;-78
2021/01/14 03:01:33;;;;;;;0.10;0.10;;;-2.90;99.90;;;;;;5030080;28;20181;-78
2021/01/14 03:03:59;;;;;;;0.47;0.45;;;-2.90;99.90;;;;;;5030096;28;20623;-78
2021/01/14 03:06:25;;;;;;;0.73;0.73;;;-2.90;99.90;;;;;;5029831;28;20163;-77
2021/01/14 03:08:51;;;;;;;0.40;0.40;;;-3.00;99.90;;;;;;5029798;28;20220;-78
2021/01/14 03:11:28;;;;;;;0.75;0.75;;;-3.00;99.90;;;;;;5028513;28;20228;-78
2021/01/14 03:13:55;;;;;;;0.20;0.20;;;-2.80;99.90;;;;;;5029723;28;20216;-77
2021/01/14 03:16:21;;;;;;;0.20;0.20;;;-2.60;99.90;;;;;;5030045;28;20166;-77
2021/01/14 03:18:56;;;;;;;0.10;0.10;;;-2.40;99.90;;;;;;5029768;28;20205;-78
2021/01/14 03:21:26;;;;;;;0.10;0.10;;;-2.30;99.90;;;;;;5029701;28;20154;-77
2021/01/14 03:23:53;;;;;;;0.30;0.30;;;-2.20;99.90;;;;;;5029727;28;20158;-78
2021/01/14 03:26:20;;;;;;;0.10;0.10;;;-2.10;99.90;;;;;;5029770;28;20158;-78
2021/01/14 03:28:48;;;;;;;0.20;0.20;;;-2.10;99.90;;;;;;5029608;28;20190;-78
2021/01/14 03:31:15;;;;;;;0.20;0.20;;;-2.00;99.90;;;;;;5028216;28;20192;-77
2021/01/14 03:33:42;;;;;;;0.10;0.10;;;-2.00;99.90;;;;;;5029292;28;20202;-77
2021/01/14 03:36:09;;;;;;;0.10;0.10;;;-1.90;99.90;;;;;;5028209;28;20199;-78
2021/01/14 03:38:36;;;;;;;0.10;0.10;;;-1.90;99.90;;;;;;5029369;28;20197;-77
2021/01/14 03:41:08;;;;;;;0.10;0.10;;;-1.80;99.90;;;;;;5027725;28;20287;-78
2021/01/14 03:43:34;;;;;;;1.08;1.08;;;-1.80;99.90;;;;;;5029083;28;20221;-78
2021/01/14 03:46:00;;;;;;;0.98;0.98;;;-1.70;99.90;;;;;;5029336;28;20158;-78
2021/01/14 03:48:27;;;;;;;0.10;0.10;;;-1.70;99.90;;;;;;5029460;28;20233;-77
2021/01/14 03:50:52;;;;;;;0.20;0.20;;;-1.60;99.90;;;;;;5029407;28;20237;-78
2021/01/14 03:53:18;;;;;;;0.20;0.20;;;-1.60;99.90;;;;;;5029205;28;20190;-76
2021/01/14 03:55:44;;;;;;;0.10;0.10;;;-1.60;99.90;;;;;;5029163;28;20162;-77
2021/01/14 03:58:10;;;;;;;0.10;0.10;;;-1.50;99.90;;;;;;5029189;28;20189;-77
2021/01/14 04:00:36;;;;;;;0.10;0.10;;;-1.40;99.90;;;;;;5030768;28;20162;-77
2021/01/14 04:03:02;;;;;;;0.20;0.20;;;-1.40;99.90;;;;;;5033092;28;20242;-77
2021/01/14 04:05:28;;;;;;;0.20;0.20;;;-1.20;99.90;;;;;;5032866;28;20232;-77
2021/01/14 04:07:54;;;;;;;0.20;0.20;;;-1.10;99.90;;;;;;5028203;28;20202;-78
2021/01/14 04:10:20;;;;;;;0.20;0.20;;;-1.20;99.90;;;;;;5029304;28;20198;-77
2021/01/14 04:12:45;;;;;;;0.20;0.20;;;-1.40;99.90;;;;;;5029221;28;20204;-78
2021/01/14 04:15:12;;;;;;;0.10;0.10;;;-1.50;99.90;;;;;;5028116;28;20162;-77
2021/01/14 04:17:38;;;;;;;0.28;0.28;;;-1.40;99.90;;;;;;5030250;28;20185;-78
2021/01/14 04:20:05;;;;;;;0.20;0.20;;;-1.40;99.90;;;;;;5030520;28;20158;-78
2021/01/14 04:22:31;;;;;;;0.20;0.20;;;-1.40;99.90;;;;;;5030637;28;20200;-78
2021/01/14 04:25:02;;;;;;;0.10;0.10;;;-1.50;99.90;;;;;;5045121;28;20169;-77
2021/01/14 04:27:29;;;;;;;0.15;0.15;;;-1.60;99.90;;;;;;5028831;28;20204;-78
2021/01/14 04:29:55;;;;;;;0.10;0.10;;;-1.70;99.90;;;;;;5028609;28;20160;-78
2021/01/14 04:32:22;;;;;;;0.20;0.20;;;-1.70;99.90;;;;;;5028731;28;20249;-78
2021/01/14 04:34:48;;;;;;;0.13;0.13;;;-1.70;99.90;;;;;;5028944;28;20169;-78
2021/01/14 04:37:14;;;;;;;0.15;0.15;;;-1.70;99.90;;;;;;5027400;28;20197;-78
2021/01/14 04:39:40;;;;;;;0.10;0.10;;;-1.60;99.90;;;;;;5028847;28;20165;-78
2021/01/14 04:42:09;;;;;;;0.47;0.47;;;-1.50;99.90;;;;;;5028467;28;20237;-78
2021/01/14 04:44:35;;;;;;;0.20;0.20;;;-1.40;99.90;;;;;;5028956;28;20174;-78
2021/01/14 04:47:07;;;;;;;0.10;0.10;;;-1.30;99.90;;;;;;5028811;28;20154;-79
2021/01/14 04:49:35;;;;;;;0.20;0.20;;;-1.30;99.90;;;;;;5028788;28;20185;-80
2021/01/14 04:52:04;;;;;;;0.20;0.20;;;-1.40;99.90;;;;;;5028550;28;20158;-79
2021/01/14 04:54:36;;;;;;;0.20;0.20;;;-1.20;99.90;;;;;;5028961;28;20158;-77
2021/01/14 04:57:18;;;;;;;0.10;0.10;;;-1.20;99.90;;;;;;5032355;28;20174;-78
2021/01/14 04:59:54;;;;;;;0.10;0.10;;;-1.20;99.90;;;;;;5048324;28;20159;-77
2021/01/14 05:02:24;;;;;;;0.10;0.10;;;-1.20;99.90;;;;;;5032561;28;20181;-78
2021/01/14 05:04:52;;;;;;;0.40;0.40;;;-1.20;99.90;;;;;;5027287;28;20170;-79
2021/01/14 05:07:54;;;;;;;0.10;0.10;;;-1.20;99.90;;;;;;5028441;28;20194;-79
2021/01/14 05:10:23;;;;;;;1.17;1.08;;;-1.30;99.90;;;;;;5037398;28;20192;-78
2021/01/14 05:12:50;;;;;;;0.20;0.20;;;-1.30;99.90;;;;;;5028496;28;20182;-77
2021/01/14 05:15:17;;;;;;;0.10;0.10;;;-1.30;99.90;;;;;;5028587;28;20151;-78
2021/01/14 05:17:43;;;;;;;0.20;0.20;;;-1.30;99.90;;;;;;5043780;28;20202;-78
2021/01/14 05:20:09;;;;;;;0.20;0.20;;;-1.30;99.90;;;;;;5043791;28;20162;-78
2021/01/14 05:22:38;;;;;;;0.20;0.20;;;-1.30;99.90;;;;;;5047265;28;20166;-77
2021/01/14 05:25:09;;;;;;;0.20;0.20;;;-1.40;99.90;;;;;;5032180;28;20666;-78
2021/01/14 05:27:36;;;;;;;0.82;0.82;;;-1.50;99.90;;;;;;5047212;28;20270;-78
2021/01/14 05:30:07;;;;;;;0.20;0.20;;;-1.50;99.90;;;;;;5032219;28;20198;-79
2021/01/14 05:32:40;;;;;;;0.17;0.17;;;-1.50;99.90;;;;;;5046914;28;20202;-78
2021/01/14 05:35:09;;;;;;;0.30;0.30;;;-1.70;99.90;;;;;;5031878;28;20178;-77
2021/01/14 05:37:37;;;;;;;0.40;0.40;;;-1.80;99.90;;;;;;5030414;28;20194;-78
2021/01/14 05:40:05;;;;;;;0.40;0.40;;;-1.90;99.90;;;;;;5031978;28;20497;-78
2021/01/14 05:42:31;;;;;;;0.57;0.57;;;-2.00;99.90;;;;;;5046434;28;20229;-77
2021/01/14 05:44:59;;;;;;;0.20;0.20;;;-2.00;99.90;;;;;;5031483;28;20224;-77
2021/01/14 05:47:27;;;;;;;0.20;0.20;;;-2.00;99.90;;;;;;5031203;28;20260;-77
2021/01/14 05:50:01;;;;;;;0.13;0.13;;;-2.00;99.90;;;;;;5031518;28;20162;-77
2021/01/14 05:52:31;;;;;;;0.20;0.20;;;-1.90;99.90;;;;;;5031302;28;20192;-77
2021/01/14 05:55:05;;;;;;;0.10;0.10;;;-1.80;99.90;;;;;;5031209;28;20158;-77
2021/01/14 05:57:34;;;;;;;0.30;0.30;;;-1.90;99.90;;;;;;5046262;28;20193;-77
2021/01/14 06:00:08;;;;;;;0.13;0.13;;;-1.80;99.90;;;;;;5030931;28;20182;-78
2021/01/14 06:02:33;;;;;;;0.20;0.20;;;-1.70;99.90;;;;;;5030998;28;20209;-78
2021/01/14 06:05:00;;;;;;;0.20;0.20;;;-1.70;99.90;;;;;;5031059;28;20162;-77
2021/01/14 06:07:40;;;;;;;0.30;0.30;;;-1.60;99.90;;;;;;5031000;28;20226;-77
2021/01/14 06:10:09;;;;;;;0.20;0.20;;;-1.60;99.90;;;;;;5045904;28;20174;-78
2021/01/14 06:12:48;;;;;;;0.43;0.43;;;-1.60;99.90;;;;;;5030838;28;20209;-78
2021/01/14 06:15:17;;;;;;;0.20;0.20;;;-1.40;99.90;;;;;;5046091;28;20253;-78
2021/01/14 06:17:44;;;;;;;0.20;0.20;;;-1.30;99.90;;;;;;5045967;28;20194;-78
2021/01/14 06:20:11;;;;;;;0.35;0.35;;;-1.10;99.90;;;;;;5030662;28;20162;-78
2021/01/14 06:22:37;;;;;;;0.47;0.47;;;-1.20;99.90;;;;;;5030751;28;20590;-78
2021/01/14 06:25:05;;;;;;;0.85;0.85;;;-1.40;99.90;;;;;;5030692;28;20163;-78
2021/01/14 06:27:32;;;;;;;1.10;1.10;;;-1.50;99.90;;;;;;5029058;28;20300;-78
2021/01/14 06:30:12;;;;;;;0.20;0.20;;;-1.50;99.90;;;;;;5030522;28;20170;-78
2021/01/14 06:32:38;;;;;;;0.25;0.25;;;-1.50;99.90;;;;;;5045561;28;20727;-78
2021/01/14 06:35:08;;;;;;;0.10;0.10;;;-1.50;99.90;;;;;;5030515;28;20166;-78
2021/01/14 06:37:38;;;;;;;1.20;1.20;;;-1.60;99.90;;;;;;5045492;28;20178;-78
2021/01/14 06:40:06;;;;;;;0.13;0.13;;;-1.70;99.90;;;;;;5030224;28;20190;-78
2021/01/14 06:42:33;;;;;;;0.85;0.85;;;-1.60;99.90;;;;;;5045022;28;20232;-78
2021/01/14 06:45:06;;;;;;;0.20;0.20;;;-1.60;99.90;;;;;;5030243;28;20190;-79
2021/01/14 06:47:37;;;;;;;1.38;1.33;;;-1.50;99.90;;;;;;5030147;28;20557;-79
2021/01/14 06:50:15;;;;;;;1.75;1.65;;;-1.40;99.90;;;;;;5030664;28;20173;-78
2021/01/14 06:52:57;;;;;;;0.40;0.40;;;-1.30;99.90;;;;;;5045156;28;20201;-78
2021/01/14 06:55:25;;;;;;;0.20;0.20;;;-1.10;99.90;;;;;;5029988;28;20162;-78
2021/01/14 06:58:16;;;;;;;0.30;0.30;;;-1.00;99.90;;;;;;5030076;28;20159;-78
2021/01/14 07:00:47;;;;;;;2.38;1.65;;;-0.90;99.90;;;;;;5045088;28;20201;-78
2021/01/14 07:03:13;;;;;;;0.20;0.20;;;-0.80;99.90;;;;;;5045086;28;20511;-78
2021/01/14 07:05:51;;;;;;;0.20;0.20;;;-0.80;99.90;;;;;;5029946;28;20162;-79
2021/01/14 07:08:36;;;;;;;0.13;0.13;;;-0.70;99.90;;;;;;5029937;28;20192;-77
2021/01/14 07:11:05;;;;;;;0.10;0.10;;;-0.50;99.90;;;;;;5045062;28;20217;-78
2021/01/14 07:13:33;;;;;;;0.35;0.35;;;-0.40;99.90;;;;;;5029365;28;20193;-77
2021/01/14 07:16:00;;;;;;;0.20;0.20;;;-0.30;99.90;;;;;;5029853;28;20181;-75
2021/01/14 07:18:28;;;;;;;0.10;0.10;;;-0.20;99.90;;;;;;5028568;28;20174;-78
2021/01/14 07:21:04;;;;;;;0.68;0.68;;;-0.10;99.90;;;;;;5027448;28;20297;-78
2021/01/14 07:23:36;;;;;;;0.20;0.20;;;0.00;99.90;;;;;;5027392;28;20201;-77
2021/01/14 07:26:03;;;;;;;0.50;0.50;;;0.00;99.90;;;;;;5027843;28;20170;-78
2021/01/14 07:28:29;;;;;;;0.50;0.50;;;0.20;99.90;;;;;;5029210;28;20253;-75
2021/01/14 07:30:56;;;;;;;0.13;0.13;;;0.10;99.90;;;;;;5028125;28;20198;-76
2021/01/14 07:33:26;;;;;;;0.10;0.10;;;0.30;99.90;;;;;;5030410;28;20189;-78
2021/01/14 07:35:54;;;;;;;0.20;0.20;;;0.30;99.90;;;;;;5032214;28;20154;-77
2021/01/14 07:38:21;;;;;;;0.10;0.10;;;0.30;99.90;;;;;;5033709;28;20270;-78
2021/01/14 07:40:53;;;;;;;0.10;0.10;;;0.40;99.90;;;;;;5031057;28;20197;-77
2021/01/14 07:43:30;;;;;;;0.10;0.10;;;0.60;99.90;;;;;;5032149;28;20177;-77
2021/01/14 07:46:17;;;;;;;0.10;0.10;;;0.80;99.90;;;;;;5031875;28;20173;-79
2021/01/14 07:48:44;;;;;;;0.10;0.10;;;0.90;99.90;;;;;;5030905;28;20201;-77
2021/01/14 07:51:10;;;;;;;0.10;0.10;;;0.80;99.90;;;;;;5033254;28;20196;-77
2021/01/14 07:53:36;;;;;;;0.52;0.52;;;0.90;99.90;;;;;;5031859;28;20186;-77
2021/01/14 07:56:22;;;;;;;0.10;0.10;;;1.00;99.90;;;;;;5031762;28;20154;-78
2021/01/14 07:58:52;;;;;;;0.10;0.10;;;1.00;99.90;;;;;;5032051;28;20182;-79
2021/01/14 08:01:18;;;;;;;0.10;0.10;;;1.10;99.90;;;;;;5032200;28;20297;-77
2021/01/14 08:03:45;;;;;;;0.20;0.20;;;1.20;99.90;;;;;;5030975;28;20178;-77
2021/01/14 08:06:27;;;;;;;0.17;0.17;;;1.40;99.90;;;;;;5032451;28;20188;-78
2021/01/14 08:09:06;;;;;;;0.73;0.73;;;1.50;99.90;;;;;;5031620;28;20166;-78
2021/01/14 08:11:33;;;;;;;1.73;0.95;;;1.50;99.90;;;;;;5031333;28;20193;-77
2021/01/14 08:14:03;;;;;;;0.57;0.57;;;1.60;99.90;;;;;;5030584;28;20268;-79
2021/01/14 08:16:35;;;;;;;0.95;0.95;;;1.70;99.90;;;;;;5027614;28;20237;-78
2021/01/14 08:19:28;;;;;;;0.10;0.10;;;2.00;99.90;;;;;;5028414;28;20162;-78
2021/01/14 08:22:03;;;;;;;0.10;0.10;;;2.20;99.90;;;;;;5028145;28;20193;-78
2021/01/14 08:24:52;;;;;;;0.17;0.17;;;2.40;99.90;;;;;;5028209;28;20193;-78
2021/01/14 08:27:21;;;;;;;0.10;0.10;;;2.50;99.90;;;;;;5027321;28;20228;-78
2021/01/14 08:30:16;;;;;;;0.20;0.20;;;3.00;99.90;;;;;;5028308;28;20190;-77
2021/01/14 08:32:46;;;;;;;0.10;0.10;;;3.80;99.90;;;;;;5024112;28;20209;-78
2021/01/14 08:35:15;;;;;;;0.10;0.10;;;4.40;99.90;;;;;;5028700;28;20158;-77
2021/01/14 08:37:55;;;;;;;0.47;0.47;;;4.30;99.90;;;;;;5027295;28;20173;-78
2021/01/14 08:40:33;;;;;;;0.10;0.10;;;5.20;99.90;;;;;;5028283;28;20222;-77
2021/01/14 08:43:10;;;;;;;0.10;0.10;;;5.40;99.90;;;;;;5027882;28;20253;-77
2021/01/14 08:45:43;;;;;;;0.10;0.10;;;6.10;99.90;;;;;;5028412;28;20176;-78
2021/01/14 08:48:13;;;;;;;0.20;0.20;;;5.50;99.90;;;;;;5027136;28;20170;-76
2021/01/14 08:50:46;;;;;;;0.10;0.10;;;5.90;99.90;;;;;;5026336;28;20174;-77
2021/01/14 08:53:17;;;;;;;0.10;0.10;;;6.50;99.90;;;;;;5028146;28;20193;-78
2021/01/14 08:55:44;;;;;;;0.10;0.10;;;6.70;99.90;;;;;;5030131;28;20237;-77
2021/01/14 08:58:11;;;;;;;0.10;0.10;;;7.00;99.90;;;;;;5031075;28;20193;-76
2021/01/14 09:00:37;;;;;;;0.10;0.10;;;8.20;99.90;;;;;;5030910;28;20196;-77
2021/01/14 09:03:04;;;;;;;0.00;0.00;;;8.10;99.90;;;;;;5032152;28;20193;-76
2021/01/14 09:05:30;;;;;;;0.20;0.20;;;9.50;99.90;;;;;;5031248;28;20170;-76
2021/01/14 09:08:12;;;;;;;0.10;0.10;;;8.90;99.90;;;;;;5032133;28;20165;-77
2021/01/14 09:10:59;;;;;;;0.20;0.20;;;8.30;99.90;;;;;;5032152;28;20189;-77
2021/01/14 09:13:30;;;;;;;0.10;0.10;;;9.20;99.90;;;;;;5030004;28;20375;-76
2021/01/14 09:16:09;;;;;;;0.10;0.10;;;8.70;99.90;;;;;;5028534;28;20205;-77
2021/01/14 09:18:41;;;;;;;0.05;0.05;;;9.60;99.90;;;;;;5011733;28;20206;-77
2021/01/14 09:21:07;;;;;;;0.10;0.10;;;8.90;99.90;;;;;;5034185;28;20285;-76
2021/01/14 09:23:35;;;;;;;0.10;0.10;;;7.70;99.90;;;;;;5031799;28;20224;-77
2021/01/14 09:26:05;;;;;;;0.10;0.10;;;7.60;99.90;;;;;;5030874;28;20563;-76
2021/01/14 09:28:32;;;;;;;0.10;0.10;;;6.90;99.90;;;;;;5029299;28;20178;-76
2021/01/14 09:30:57;;;;;;;0.10;0.10;;;7.90;99.90;;;;;;5030815;28;20201;-75
2021/01/14 09:33:29;;;;;;;0.00;0.00;;;7.80;99.90;;;;;;5030616;28;20334;-77
2021/01/14 09:35:58;;;;;;;0.10;0.10;;;8.10;99.90;;;;;;5029882;28;20250;-77
2021/01/14 09:38:26;;;;;;;0.10;0.10;;;9.70;99.90;;;;;;5029205;28;20270;-75
2021/01/14 09:40:56;;;;;;;0.10;0.10;;;10.10;99.90;;;;;;5029411;28;20170;-76
2021/01/14 09:43:25;;;;;;;0.50;0.50;;;9.90;99.90;;;;;;5029314;28;20197;-75
2021/01/14 09:45:52;;;;;;;0.10;0.10;;;10.10;99.90;;;;;;5029520;28;20201;-76
2021/01/14 09:48:22;;;;;;;0.10;0.10;;;9.00;99.90;;;;;;5031316;28;20150;-76
2021/01/14 09:50:51;;;;;;;0.10;0.10;;;7.80;99.90;;;;;;5031806;28;20252;-77
2021/01/14 09:53:18;;;;;;;0.10;0.10;;;6.00;99.90;;;;;;5011154;28;20201;-77
2021/01/14 09:55:44;;;;;;;0.80;0.80;;;4.70;99.90;;;;;;5010805;28;20163;-76
2021/01/14 09:58:18;;;;;;;0.20;0.20;;;4.20;99.90;;;;;;5011331;28;20269;-75
2021/01/14 10:00:49;;;;;;;0.10;0.10;;;3.90;99.90;;;;;;5009611;28;20201;-77
2021/01/14 10:03:18;;;;;;;0.20;0.20;;;3.80;99.90;;;;;;5025547;28;20175;-77
2021/01/14 10:05:48;;;;;;;0.10;0.10;;;3.60;99.90;;;;;;5010506;28;20169;-77
2021/01/14 10:08:24;;;;;;;0.10;0.10;;;3.40;99.90;;;;;;5010603;28;20174;-76
2021/01/14 10:10:50;;;;;;;0.10;0.10;;;3.20;99.90;;;;;;5010414;28;20229;-76
2021/01/14 10:13:16;;;;;;;0.15;0.15;;;3.10;99.90;;;;;;5010531;28;20191;-76
2021/01/14 10:15:44;;;;;;;0.10;0.10;;;2.90;99.90;;;;;;5024525;28;20230;-75
2021/01/14 10:18:24;;;;;;;0.10;0.10;;;2.90;99.90;;;;;;5021095;28;20158;-76
2021/01/14 10:21:01;;;;;;;0.20;0.20;;;3.20;99.90;;;;;;5025002;28;20190;-77
2021/01/14 10:23:28;;;;;;;0.10;0.10;;;3.70;99.90;;;;;;5027477;28;20200;-76
2021/01/14 10:25:55;;;;;;;0.10;0.10;;;4.80;99.90;;;;;;5029804;28;20224;-77
2021/01/14 10:28:22;;;;;;;0.10;0.10;;;5.30;99.90;;;;;;5030182;28;20154;-78
2021/01/14 10:30:49;;;;;;;0.10;0.10;;;5.00;99.90;;;;;;5030402;28;20200;-77
2021/01/14 10:33:15;;;;;;;0.10;0.10;;;6.20;99.90;;;;;;5032393;28;20208;-77
2021/01/14 10:35:42;;;;;;;0.10;0.10;;;7.00;99.90;;;;;;5034184;28;20159;-78
2021/01/14 10:38:15;;;;;;;0.10;0.10;;;5.40;99.90;;;;;;5049149;28;20162;-76
2021/01/14 10:40:49;;;;;;;0.40;0.40;;;4.40;99.90;;;;;;5029822;28;20197;-77
2021/01/14 10:43:34;;;;;;;0.10;0.10;;;5.30;99.90;;;;;;5029379;28;20170;-75
2021/01/14 10:46:01;;;;;;;0.10;0.10;;;6.20;99.90;;;;;;5028580;28;20184;-77
2021/01/14 10:48:39;;;;;;;0.10;0.10;;;6.90;99.90;;;;;;5029748;28;20186;-80
2021/01/14 10:51:05;;;;;;;0.20;0.20;;;7.80;99.90;;;;;;5029205;28;20284;-77
2021/01/14 10:53:33;;;;;;;0.10;0.10;;;6.60;99.90;;;;;;5028834;28;20190;-79
2021/01/14 10:56:06;;;;;;;0.10;0.10;;;6.50;99.90;;;;;;5028578;28;20213;-77
2021/01/14 10:58:33;;;;;;;0.40;0.40;;;6.90;99.90;;;;;;5028830;28;20190;-78
2021/01/14 11:00:59;;;;;;;0.10;0.10;;;6.50;99.90;;;;;;5028257;28;20603;-78
2021/01/14 11:03:27;;;;;;;0.10;0.10;;;6.60;99.90;;;;;;5023135;28;20183;-79
2021/01/14 11:05:59;;;;;;;0.10;0.10;;;6.70;99.90;;;;;;5010227;28;20226;-80
2021/01/14 11:08:39;;;;;;;0.10;0.10;;;6.00;99.90;;;;;;5028675;28;20525;-79
2021/01/14 11:11:07;;;;;;;0.20;0.20;;;6.00;99.90;;;;;;5029371;28;20165;-79
2021/01/14 11:13:37;;;;;;;0.10;0.10;;;5.80;99.90;;;;;;5029730;28;20201;-84
2021/01/14 11:16:07;;;;;;;0.10;0.10;;;5.90;99.90;;;;;;5028153;28;20214;-77
2021/01/14 11:18:41;;;;;;;0.20;0.20;;;5.90;99.90;;;;;;5028689;28;20186;-78
2021/01/14 11:21:08;;;;;;;0.10;0.10;;;5.00;99.90;;;;;;5028149;28;20205;-78
2021/01/14 11:23:35;;;;;;;0.20;0.20;;;5.30;99.90;;;;;;5027954;28;20260;-81
2021/01/14 11:26:04;;;;;;;0.10;0.10;;;5.20;99.90;;;;;;5027845;28;20286;-81
2021/01/14 11:28:30;;;;;;;0.10;0.10;;;5.60;99.90;;;;;;5027509;28;20229;-82
2021/01/14 11:30:57;;;;;;;0.15;0.15;;;5.60;99.90;;;;;;5028825;28;20176;-82
2021/01/14 11:33:23;;;;;;;0.20;0.20;;;5.90;99.90;;;;;;5027783;28;20205;-79
2021/01/14 11:35:49;;;;;;;0.10;0.10;;;5.70;99.90;;;;;;5028912;28;20158;-81
2021/01/14 11:38:18;;;;;;;0.32;0.32;;;5.90;99.90;;;;;;5028026;28;20166;-80
2021/01/14 11:40:47;;;;;;;0.10;0.10;;;5.20;99.90;;;;;;5027427;28;20249;-79
2021/01/14 11:43:13;;;;;;;0.10;0.10;;;5.10;99.90;;;;;;5017686;28;20166;-77
2021/01/14 11:45:39;;;;;;;0.10;0.10;;;5.00;99.90;;;;;;5025092;28;20217;-83
2021/01/14 11:48:06;;;;;;;0.10;0.10;;;5.20;99.90;;;;;;5024362;28;20194;-86
2021/01/14 11:50:32;;;;;;;0.10;0.10;;;5.50;99.90;;;;;;5024169;28;20186;-81
2021/01/14 11:52:58;;;;;;;0.10;0.10;;;6.00;99.90;;;;;;5009286;28;20651;-81
2021/01/14 11:55:24;;;;;;;0.10;0.10;;;4.80;99.90;;;;;;5018703;28;20212;-78
2021/01/14 11:57:50;;;;;;;0.10;0.10;;;4.40;99.90;;;;;;5013722;28;20233;-77
2021/01/14 12:00:16;;;;;;;0.10;0.10;;;4.40;99.90;;;;;;5009939;28;20159;-79
2021/01/14 12:02:42;;;;;;;0.10;0.10;;;5.20;99.90;;;;;;5028231;28;20231;-79
2021/01/14 12:05:09;;;;;;;0.10;0.10;;;5.00;99.90;;;;;;5026860;28;20628;-78
2021/01/14 12:07:34;;;;;;;0.28;0.25;;;5.10;99.90;;;;;;5043168;28;20198;-76
2021/01/14 12:10:00;;;;;;;0.10;0.10;;;5.00;99.90;;;;;;5026412;28;20197;-76
2021/01/14 12:12:26;;;;;;;0.10;0.10;;;4.80;99.90;;;;;;5025909;28;20220;-78
2021/01/14 12:14:52;;;;;;;0.10;0.10;;;5.20;99.90;;;;;;5007189;28;20170;-79
2021/01/14 12:17:17;;;;;;;0.10;0.10;;;4.80;99.90;;;;;;5008167;28;20257;-76
2021/01/14 12:19:43;;;;;;;0.10;0.10;;;4.30;99.90;;;;;;5023069;28;20170;-75
2021/01/14 12:22:09;;;;;;;0.10;0.10;;;5.00;99.90;;;;;;5008334;28;20541;-76
2021/01/14 12:24:35;;;;;;;0.10;0.10;;;5.40;99.90;;;;;;5008135;28;20159;-75
2021/01/14 12:27:01;;;;;;;0.10;0.10;;;5.40;99.90;;;;;;5023184;28;20233;-80
2021/01/14 12:29:28;;;;;;;0.10;0.10;;;5.20;99.90;;;;;;5037149;28;20265;-78
2021/01/14 12:31:54;;;;;;;0.10;0.10;;;4.60;99.90;;;;;;5026631;28;20201;-75
2021/01/14 12:34:20;;;;;;;0.10;0.10;;;4.30;99.90;;;;;;5027398;28;20219;-79
2021/01/14 12:36:47;;;;;;;0.10;0.10;;;4.60;99.90;;;;;;5027490;28;20229;-82
2021/01/14 12:39:13;;;;;;;0.20;0.20;;;4.20;99.90;;;;;;5026487;28;20189;-80
2021/01/14 12:41:39;;;;;;;0.10;0.10;;;4.10;99.90;;;;;;5028299;28;20557;-80
2021/01/14 12:44:06;;;;;;;0.10;0.10;;;3.80;99.90;;;;;;5027184;28;20181;-81
2021/01/14 12:46:36;;;;;;;0.10;0.10;;;3.40;99.90;;;;;;5027164;28;20201;-79
2021/01/14 12:49:02;;;;;;;0.10;0.10;;;3.20;99.90;;;;;;5028497;28;20220;-82
2021/01/14 12:51:28;;;;;;;0.10;0.10;;;3.10;99.90;;;;;;5024393;28;20205;-86
2021/01/14 12:53:54;;;;;;;0.10;0.10;;;3.10;99.90;;;;;;5026672;28;20205;-83
2021/01/14 12:56:20;;;;;;;0.10;0.10;;;3.00;99.90;;;;;;5030892;28;20200;-79
2021/01/14 12:58:45;;;;;;;0.10;0.10;;;3.00;99.90;;;;;;5033248;28;20228;-86
2021/01/14 13:01:11;;;;;;;0.13;0.13;;;3.00;99.90;;;;;;5032883;28;20162;-80
2021/01/14 13:03:37;;;;;;;0.10;0.10;;;3.10;99.90;;;;;;5045750;28;20234;-81